createdAt,value
2018-10-09T00:00:23.630Z,0.00
2018-10-09T00:01:23.624Z,0.00
2018-10-09T00:02:23.621Z,0.00
2018-10-09T00:03:23.716Z,0.00
2018-10-09T00:04:23.659Z,0.00
2018-10-09T00:05:23.625Z,0.00
2018-10-09T00:06:23.652Z,0.00
2018-10-09T00:07:23.598Z,0.00
2018-10-09T00:08:23.594Z,0.00
2018-10-09T00:09:23.593Z,0.00
2018-10-09T00:10:23.589Z,0.00
2018-10-09T00:11:23.584Z,0.00
2018-10-09T00:12:23.578Z,0.00
2018-10-09T00:13:23.572Z,0.00
2018-10-09T00:14:23.570Z,0.00
2018-10-09T00:15:23.563Z,0.00
2018-10-09T00:16:23.567Z,0.00
2018-10-09T00:17:23.555Z,0.00
2018-10-09T00:18:23.583Z,0.00
2018-10-09T00:19:23.610Z,0.00
2018-10-09T00:20:23.628Z,0.00
2018-10-09T00:21:23.577Z,0.00
2018-10-09T00:22:25.127Z,0.00
2018-10-09T00:23:23.531Z,0.00
2018-10-09T00:24:23.530Z,0.00
2018-10-09T00:25:23.522Z,0.00
2018-10-09T00:26:23.518Z,0.00
2018-10-09T00:27:23.514Z,0.00
2018-10-09T00:28:23.509Z,0.00
2018-10-09T00:29:23.504Z,0.00
2018-10-09T00:30:23.500Z,0.00
2018-10-09T00:31:23.495Z,0.00
2018-10-09T00:32:23.512Z,0.00
2018-10-09T00:33:23.486Z,0.00
2018-10-09T00:34:23.482Z,0.00
2018-10-09T00:35:23.479Z,0.00
2018-10-09T00:36:23.474Z,0.00
2018-10-09T00:37:23.470Z,0.00
2018-10-09T00:38:23.465Z,0.00
2018-10-09T00:39:23.462Z,0.00
2018-10-09T00:40:23.453Z,0.00
2018-10-09T00:41:23.453Z,0.00
2018-10-09T00:42:23.453Z,0.00
2018-10-09T00:43:23.449Z,0.00
2018-10-09T00:44:23.438Z,0.00
2018-10-09T00:45:23.435Z,0.00
2018-10-09T00:46:23.505Z,0.00
2018-10-09T00:47:23.425Z,0.00
2018-10-09T00:48:23.558Z,0.00
2018-10-09T00:49:23.420Z,0.00
2018-10-09T00:50:23.416Z,0.00
2018-10-09T00:51:23.420Z,0.00
2018-10-09T00:52:23.407Z,0.00
2018-10-09T00:53:23.411Z,0.00
2018-10-09T00:54:23.395Z,0.00
2018-10-09T00:55:24.136Z,0.00
2018-10-09T00:56:23.400Z,0.00
2018-10-09T00:57:24.168Z,0.00
2018-10-09T00:58:23.381Z,0.00
2018-10-09T00:59:23.372Z,0.00
2018-10-09T01:00:23.366Z,0.00
2018-10-09T01:01:23.364Z,0.00
2018-10-09T01:02:23.360Z,0.00
2018-10-09T01:03:23.355Z,0.00
2018-10-09T01:04:23.352Z,0.00
2018-10-09T01:05:23.346Z,0.00
2018-10-09T01:06:23.346Z,0.00
2018-10-09T01:07:23.336Z,0.00
2018-10-09T01:08:23.333Z,0.00
2018-10-09T01:09:23.341Z,0.00
2018-10-09T01:10:23.396Z,0.00
2018-10-09T01:11:23.320Z,0.00
2018-10-09T01:12:23.318Z,0.00
2018-10-09T01:13:23.321Z,0.00
2018-10-09T01:14:23.306Z,0.00
2018-10-09T01:15:23.303Z,0.00
2018-10-09T01:16:23.311Z,0.00
2018-10-09T01:17:23.327Z,0.00
2018-10-09T01:18:23.289Z,0.00
2018-10-09T01:19:23.282Z,0.00
2018-10-09T01:20:23.279Z,0.00
2018-10-09T01:21:23.273Z,0.00
2018-10-09T01:22:23.271Z,0.00
2018-10-09T01:23:23.267Z,0.00
2018-10-09T01:24:23.270Z,0.00
2018-10-09T01:25:23.258Z,0.00
2018-10-09T01:26:23.253Z,0.00
2018-10-09T01:27:23.251Z,0.00
2018-10-09T01:28:23.249Z,0.00
2018-10-09T01:29:23.240Z,0.00
2018-10-09T01:30:23.235Z,0.00
2018-10-09T01:31:23.230Z,0.00
2018-10-09T01:32:23.226Z,0.00
2018-10-09T01:33:23.222Z,0.00
2018-10-09T01:34:23.219Z,0.00
2018-10-09T01:35:23.212Z,0.00
2018-10-09T01:36:23.211Z,0.00
2018-10-09T01:37:23.203Z,0.00
2018-10-09T01:38:23.210Z,0.00
2018-10-09T01:39:23.199Z,0.00
2018-10-09T01:40:23.187Z,0.00
2018-10-09T01:41:23.187Z,0.00
2018-10-09T01:42:23.192Z,0.00
2018-10-09T01:43:23.177Z,0.00
2018-10-09T01:44:23.172Z,0.00
2018-10-09T01:45:23.168Z,0.00
2018-10-09T01:46:23.163Z,0.00
2018-10-09T01:47:23.159Z,0.00
2018-10-09T01:48:23.153Z,0.00
2018-10-09T01:49:23.148Z,0.00
2018-10-09T01:50:23.145Z,0.00
2018-10-09T01:51:23.140Z,0.00
2018-10-09T01:52:23.136Z,0.00
2018-10-09T01:53:23.135Z,0.00
2018-10-09T01:54:23.125Z,0.00
2018-10-09T01:55:23.123Z,0.00
2018-10-09T01:56:23.122Z,0.00
2018-10-09T01:57:23.117Z,0.00
2018-10-09T01:58:23.109Z,0.00
2018-10-09T01:59:23.104Z,0.00
2018-10-09T02:00:23.100Z,0.00
2018-10-09T02:01:23.096Z,0.00
2018-10-09T02:02:23.094Z,0.00
2018-10-09T02:03:23.088Z,0.00
2018-10-09T02:04:23.082Z,0.00
2018-10-09T02:05:23.079Z,0.00
2018-10-09T02:06:23.073Z,0.00
2018-10-09T02:07:23.075Z,0.00
2018-10-09T02:08:23.063Z,0.00
2018-10-09T02:09:23.060Z,0.00
2018-10-09T02:10:23.055Z,0.00
2018-10-09T02:11:23.049Z,0.00
2018-10-09T02:12:23.046Z,0.00
2018-10-09T02:13:23.039Z,0.00
2018-10-09T02:14:23.037Z,0.00
2018-10-09T02:15:23.031Z,0.00
2018-10-09T02:16:23.026Z,0.00
2018-10-09T02:17:23.021Z,0.00
2018-10-09T02:18:23.161Z,0.00
2018-10-09T02:19:23.013Z,0.00
2018-10-09T02:20:23.008Z,0.00
2018-10-09T02:21:23.014Z,0.00
2018-10-09T02:22:23.001Z,0.00
2018-10-09T02:23:22.996Z,0.00
2018-10-09T02:24:22.988Z,0.00
2018-10-09T02:25:22.984Z,0.00
2018-10-09T02:26:22.981Z,0.00
2018-10-09T02:27:22.975Z,0.00
2018-10-09T02:28:22.970Z,0.00
2018-10-09T02:29:22.967Z,0.00
2018-10-09T02:30:22.964Z,0.00
2018-10-09T02:31:22.963Z,0.00
2018-10-09T02:32:22.950Z,0.00
2018-10-09T02:33:22.997Z,0.00
2018-10-09T02:34:22.942Z,0.00
2018-10-09T02:35:22.945Z,0.00
2018-10-09T02:36:22.934Z,0.00
2018-10-09T02:37:22.929Z,0.00
2018-10-09T02:38:22.925Z,0.00
2018-10-09T02:39:22.920Z,0.00
2018-10-09T02:40:22.915Z,0.00
2018-10-09T02:41:22.910Z,0.00
2018-10-09T02:42:22.904Z,0.00
2018-10-09T02:43:22.901Z,0.00
2018-10-09T02:44:22.895Z,0.00
2018-10-09T02:45:22.947Z,0.00
2018-10-09T02:46:22.893Z,0.00
2018-10-09T02:47:22.883Z,0.00
2018-10-09T02:48:22.879Z,0.00
2018-10-09T02:49:22.873Z,0.00
2018-10-09T02:50:22.870Z,0.00
2018-10-09T02:51:22.865Z,0.00
2018-10-09T02:52:22.858Z,0.00
2018-10-09T02:53:22.854Z,0.00
2018-10-09T02:54:22.851Z,0.00
2018-10-09T02:55:22.854Z,0.00
2018-10-09T02:56:22.840Z,0.00
2018-10-09T02:57:22.838Z,0.00
2018-10-09T02:58:22.833Z,0.00
2018-10-09T02:59:22.827Z,0.00
2018-10-09T03:00:22.825Z,0.00
2018-10-09T03:01:22.817Z,0.00
2018-10-09T03:02:22.814Z,0.00
2018-10-09T03:03:22.809Z,0.00
2018-10-09T03:04:22.804Z,0.00
2018-10-09T03:05:22.798Z,0.00
2018-10-09T03:06:22.795Z,0.00
2018-10-09T03:07:22.791Z,0.00
2018-10-09T03:08:22.798Z,0.00
2018-10-09T03:09:22.866Z,0.00
2018-10-09T03:10:22.816Z,0.00
2018-10-09T03:11:22.860Z,0.00
2018-10-09T03:12:22.790Z,0.00
2018-10-09T03:13:22.770Z,0.00
2018-10-09T03:14:22.765Z,0.00
2018-10-09T03:15:22.770Z,0.00
2018-10-09T03:16:22.769Z,0.00
2018-10-09T03:17:22.754Z,0.00
2018-10-09T03:18:37.786Z,0.00
2018-10-09T03:19:22.736Z,0.00
2018-10-09T03:20:22.731Z,0.00
2018-10-09T03:21:22.724Z,0.00
2018-10-09T03:22:22.739Z,0.00
2018-10-09T03:23:22.715Z,0.00
2018-10-09T03:24:22.709Z,0.00
2018-10-09T03:25:22.877Z,0.00
2018-10-09T03:26:22.701Z,0.00
2018-10-09T03:27:22.714Z,0.00
2018-10-09T03:28:22.689Z,0.00
2018-10-09T03:29:22.686Z,0.00
2018-10-09T03:30:22.681Z,0.00
2018-10-09T03:31:22.704Z,0.00
2018-10-09T03:32:22.672Z,0.00
2018-10-09T03:33:22.697Z,0.00
2018-10-09T03:34:22.664Z,0.00
2018-10-09T03:35:22.697Z,0.00
2018-10-09T03:36:22.654Z,0.00
2018-10-09T03:37:22.665Z,0.00
2018-10-09T03:38:22.653Z,0.00
2018-10-09T03:39:22.659Z,0.00
2018-10-09T03:40:22.669Z,0.00
2018-10-09T03:41:22.673Z,0.00
2018-10-09T03:42:22.672Z,0.00
2018-10-09T03:43:22.653Z,0.00
2018-10-09T03:44:22.665Z,0.00
2018-10-09T03:45:22.611Z,0.00
2018-10-09T03:46:22.676Z,0.00
2018-10-09T03:47:22.616Z,0.00
2018-10-09T03:48:22.696Z,0.00
2018-10-09T03:49:22.605Z,0.00
2018-10-09T03:50:22.601Z,0.00
2018-10-09T03:51:22.610Z,0.00
2018-10-09T03:52:22.584Z,0.00
2018-10-09T03:53:22.575Z,0.00
2018-10-09T03:54:22.574Z,0.00
2018-10-09T03:55:22.569Z,0.00
2018-10-09T03:56:22.562Z,0.00
2018-10-09T03:57:22.558Z,0.00
2018-10-09T03:58:22.555Z,0.00
2018-10-09T03:59:22.550Z,0.00
2018-10-09T04:00:22.543Z,0.00
2018-10-09T04:01:22.553Z,0.00
2018-10-09T04:02:22.541Z,0.00
2018-10-09T04:03:22.530Z,0.00
2018-10-09T04:04:22.530Z,0.00
2018-10-09T04:05:22.521Z,0.00
2018-10-09T04:06:22.517Z,0.00
2018-10-09T04:07:22.512Z,0.00
2018-10-09T04:08:22.510Z,0.00
2018-10-09T04:09:22.515Z,0.00
2018-10-09T04:10:22.498Z,0.00
2018-10-09T04:11:22.494Z,0.00
2018-10-09T04:12:22.489Z,0.00
2018-10-09T04:13:22.486Z,0.00
2018-10-09T04:14:22.479Z,0.00
2018-10-09T04:15:22.475Z,0.00
2018-10-09T04:16:22.469Z,0.00
2018-10-09T04:17:22.466Z,0.00
2018-10-09T04:18:22.462Z,0.00
2018-10-09T04:19:22.563Z,0.00
2018-10-09T04:20:22.452Z,0.00
2018-10-09T04:21:22.449Z,0.00
2018-10-09T04:22:22.452Z,0.00
2018-10-09T04:23:22.440Z,0.00
2018-10-09T04:24:22.435Z,0.00
2018-10-09T04:25:22.428Z,0.00
2018-10-09T04:26:22.425Z,0.00
2018-10-09T04:27:22.419Z,0.00
2018-10-09T04:28:22.412Z,0.00
2018-10-09T04:29:22.451Z,0.00
2018-10-09T04:30:22.403Z,0.00
2018-10-09T04:31:22.403Z,0.00
2018-10-09T04:32:22.395Z,0.00
2018-10-09T04:33:22.399Z,0.00
2018-10-09T04:34:22.386Z,0.00
2018-10-09T04:35:22.386Z,0.00
2018-10-09T04:36:22.376Z,0.00
2018-10-09T04:37:22.371Z,0.00
2018-10-09T04:38:22.366Z,0.00
2018-10-09T04:39:22.363Z,0.00
2018-10-09T04:40:22.360Z,0.00
2018-10-09T04:41:22.354Z,0.00
2018-10-09T04:42:22.348Z,0.00
2018-10-09T04:43:22.343Z,0.00
2018-10-09T04:44:22.337Z,0.00
2018-10-09T04:45:22.340Z,0.00
2018-10-09T04:46:22.333Z,0.00
2018-10-09T04:47:22.325Z,0.00
2018-10-09T04:48:22.330Z,0.00
2018-10-09T04:49:22.315Z,0.00
2018-10-09T04:50:22.311Z,0.00
2018-10-09T04:51:22.307Z,0.00
2018-10-09T04:52:22.300Z,0.00
2018-10-09T04:53:22.299Z,0.00
2018-10-09T04:54:22.348Z,0.00
2018-10-09T04:55:22.286Z,0.00
2018-10-09T04:56:22.285Z,0.00
2018-10-09T04:57:22.277Z,0.00
2018-10-09T04:58:22.273Z,0.00
2018-10-09T04:59:22.268Z,0.00
2018-10-09T05:00:22.268Z,0.00
2018-10-09T05:01:22.259Z,0.00
2018-10-09T05:02:22.253Z,0.00
2018-10-09T05:03:22.249Z,0.00
2018-10-09T05:04:22.245Z,0.00
2018-10-09T05:05:22.238Z,0.00
2018-10-09T05:06:22.235Z,0.00
2018-10-09T05:07:22.231Z,0.00
2018-10-09T05:08:22.226Z,0.00
2018-10-09T05:09:22.221Z,0.00
2018-10-09T05:10:22.215Z,0.00
2018-10-09T05:11:22.211Z,0.00
2018-10-09T05:12:22.205Z,0.00
2018-10-09T05:13:22.203Z,0.00
2018-10-09T05:14:22.239Z,0.00
2018-10-09T05:15:22.192Z,0.00
2018-10-09T05:16:22.187Z,0.00
2018-10-09T05:17:22.182Z,0.00
2018-10-09T05:18:22.183Z,0.00
2018-10-09T05:19:22.173Z,0.00
2018-10-09T05:20:22.166Z,0.00
2018-10-09T05:21:22.163Z,0.00
2018-10-09T05:22:22.157Z,0.00
2018-10-09T05:23:22.227Z,0.00
2018-10-09T05:24:22.152Z,0.00
2018-10-09T05:25:22.143Z,0.00
2018-10-09T05:26:22.140Z,0.00
2018-10-09T05:27:22.136Z,0.00
2018-10-09T05:28:22.131Z,0.00
2018-10-09T05:29:22.124Z,0.00
2018-10-09T05:30:22.126Z,0.00
2018-10-09T05:31:22.285Z,0.00
2018-10-09T05:32:22.111Z,0.00
2018-10-09T05:33:22.108Z,0.00
2018-10-09T05:34:22.103Z,0.00
2018-10-09T05:35:22.097Z,0.00
2018-10-09T05:36:22.093Z,0.00
2018-10-09T05:37:22.090Z,0.00
2018-10-09T05:38:22.104Z,0.00
2018-10-09T05:39:22.079Z,0.00
2018-10-09T05:40:22.074Z,5.63
2018-10-09T05:41:22.075Z,5.63
2018-10-09T05:42:22.064Z,5.63
2018-10-09T05:43:22.061Z,5.63
2018-10-09T05:44:22.169Z,5.63
2018-10-09T05:45:22.048Z,5.63
2018-10-09T05:46:22.045Z,5.63
2018-10-09T05:47:22.040Z,5.63
2018-10-09T05:48:22.041Z,5.63
2018-10-09T05:49:22.027Z,5.63
2018-10-09T05:50:22.025Z,11.25
2018-10-09T05:51:22.022Z,11.25
2018-10-09T05:52:22.049Z,11.25
2018-10-09T05:53:22.010Z,11.25
2018-10-09T05:54:22.004Z,11.25
2018-10-09T05:55:22.002Z,11.25
2018-10-09T05:56:21.997Z,11.25
2018-10-09T05:57:21.991Z,11.25
2018-10-09T05:58:21.987Z,16.88
2018-10-09T05:59:21.986Z,16.88
2018-10-09T06:00:21.981Z,16.88
2018-10-09T06:01:21.972Z,16.88
2018-10-09T06:02:21.968Z,16.88
2018-10-09T06:03:21.961Z,16.88
2018-10-09T06:04:21.957Z,16.88
2018-10-09T06:05:21.952Z,16.88
2018-10-09T06:06:21.952Z,16.88
2018-10-09T06:07:21.945Z,16.88
2018-10-09T06:08:21.939Z,16.88
2018-10-09T06:09:21.933Z,22.50
2018-10-09T06:10:21.928Z,22.50
2018-10-09T06:11:21.922Z,22.50
2018-10-09T06:12:21.919Z,22.50
2018-10-09T06:13:21.916Z,22.50
2018-10-09T06:14:21.910Z,22.50
2018-10-09T06:15:21.906Z,16.88
2018-10-09T06:16:21.900Z,16.88
2018-10-09T06:17:21.897Z,22.50
2018-10-09T06:18:21.888Z,22.50
2018-10-09T06:19:21.887Z,22.50
2018-10-09T06:20:21.880Z,22.50
2018-10-09T06:21:21.880Z,22.50
2018-10-09T06:22:21.909Z,22.50
2018-10-09T06:23:21.868Z,22.50
2018-10-09T06:24:21.863Z,22.50
2018-10-09T06:25:21.857Z,22.50
2018-10-09T06:26:21.852Z,22.50
2018-10-09T06:27:21.848Z,22.50
2018-10-09T06:28:21.898Z,22.50
2018-10-09T06:29:21.840Z,22.50
2018-10-09T06:30:21.837Z,22.50
2018-10-09T06:31:21.831Z,28.13
2018-10-09T06:32:21.826Z,28.13
2018-10-09T06:33:21.824Z,28.13
2018-10-09T06:34:21.821Z,28.13
2018-10-09T06:35:21.817Z,28.13
2018-10-09T06:36:21.809Z,28.13
2018-10-09T06:37:21.850Z,33.75
2018-10-09T06:38:21.800Z,33.75
2018-10-09T06:39:21.796Z,33.75
2018-10-09T06:40:21.826Z,33.75
2018-10-09T06:41:21.796Z,33.75
2018-10-09T06:42:21.793Z,33.75
2018-10-09T06:43:21.786Z,33.75
2018-10-09T06:44:21.820Z,33.75
2018-10-09T06:45:21.766Z,33.75
2018-10-09T06:46:21.763Z,33.75
2018-10-09T06:47:21.768Z,33.75
2018-10-09T06:48:21.816Z,33.75
2018-10-09T06:49:21.750Z,33.75
2018-10-09T06:50:21.743Z,33.75
2018-10-09T06:51:21.740Z,33.75
2018-10-09T06:52:21.741Z,33.75
2018-10-09T06:53:21.787Z,33.75
2018-10-09T06:54:21.779Z,33.75
2018-10-09T06:55:21.724Z,33.75
2018-10-09T06:56:21.718Z,33.75
2018-10-09T06:57:21.713Z,33.75
2018-10-09T06:58:21.710Z,33.75
2018-10-09T06:59:21.708Z,33.75
2018-10-09T07:00:21.780Z,33.75
2018-10-09T07:01:21.709Z,33.75
2018-10-09T07:02:21.691Z,33.75
2018-10-09T07:03:21.687Z,33.75
2018-10-09T07:04:21.683Z,33.75
2018-10-09T07:05:21.681Z,33.75
2018-10-09T07:06:21.675Z,33.75
2018-10-09T07:07:21.673Z,39.38
2018-10-09T07:08:21.675Z,39.38
2018-10-09T07:09:21.711Z,45.00
2018-10-09T07:10:21.658Z,45.00
2018-10-09T07:11:21.686Z,50.63
2018-10-09T07:12:21.654Z,50.63
2018-10-09T07:13:21.642Z,50.63
2018-10-09T07:14:21.644Z,56.25
2018-10-09T07:15:21.635Z,61.88
2018-10-09T07:16:21.630Z,61.88
2018-10-09T07:17:21.628Z,61.88
2018-10-09T07:18:21.623Z,67.50
2018-10-09T07:19:21.635Z,67.50
2018-10-09T07:20:21.614Z,67.50
2018-10-09T07:21:21.625Z,67.50
2018-10-09T07:22:21.608Z,67.50
2018-10-09T07:23:21.602Z,67.50
2018-10-09T07:24:21.600Z,67.50
2018-10-09T07:25:21.593Z,61.88
2018-10-09T07:26:21.590Z,61.88
2018-10-09T07:27:21.596Z,67.50
2018-10-09T07:28:21.586Z,61.88
2018-10-09T07:29:21.579Z,61.88
2018-10-09T07:30:21.578Z,61.88
2018-10-09T07:31:21.570Z,67.50
2018-10-09T07:32:21.566Z,67.50
2018-10-09T07:33:21.575Z,67.50
2018-10-09T07:34:21.559Z,67.50
2018-10-09T07:35:21.555Z,67.50
2018-10-09T07:36:21.549Z,67.50
2018-10-09T07:37:21.592Z,73.13
2018-10-09T07:38:21.544Z,73.13
2018-10-09T07:39:21.542Z,67.50
2018-10-09T07:40:21.532Z,67.50
2018-10-09T07:41:21.531Z,73.13
2018-10-09T07:42:21.527Z,73.13
2018-10-09T07:43:21.526Z,78.75
2018-10-09T07:44:21.587Z,78.75
2018-10-09T07:45:21.518Z,78.75
2018-10-09T07:46:21.513Z,78.75
2018-10-09T07:47:21.509Z,78.75
2018-10-09T07:48:21.504Z,78.75
2018-10-09T07:49:21.503Z,73.13
2018-10-09T07:50:21.495Z,67.50
2018-10-09T07:51:21.496Z,73.13
2018-10-09T07:52:21.491Z,67.50
2018-10-09T07:53:21.485Z,73.13
2018-10-09T07:54:21.480Z,73.13
2018-10-09T07:55:21.478Z,73.13
2018-10-09T07:56:21.480Z,73.13
2018-10-09T07:57:21.472Z,73.13
2018-10-09T07:58:21.469Z,73.13
2018-10-09T07:59:21.464Z,78.75
2018-10-09T08:00:21.460Z,84.38
2018-10-09T08:01:21.455Z,84.38
2018-10-09T08:02:21.454Z,84.38
2018-10-09T08:03:21.448Z,84.38
2018-10-09T08:04:21.464Z,84.38
2018-10-09T08:05:21.440Z,90.00
2018-10-09T08:06:21.437Z,90.00
2018-10-09T08:07:21.433Z,101.25
2018-10-09T08:08:21.433Z,106.88
2018-10-09T08:09:21.425Z,106.88
2018-10-09T08:10:21.452Z,106.88
2018-10-09T08:11:21.424Z,112.50
2018-10-09T08:12:21.416Z,118.13
2018-10-09T08:13:21.413Z,112.50
2018-10-09T08:14:21.410Z,118.13
2018-10-09T08:15:21.408Z,118.13
2018-10-09T08:16:21.453Z,118.13
2018-10-09T08:17:21.399Z,112.50
2018-10-09T08:18:21.400Z,118.13
2018-10-09T08:19:21.393Z,118.13
2018-10-09T08:20:21.391Z,123.75
2018-10-09T08:21:21.387Z,123.75
2018-10-09T08:22:21.420Z,123.75
2018-10-09T08:23:21.381Z,129.38
2018-10-09T08:24:21.378Z,129.38
2018-10-09T08:25:21.376Z,129.38
2018-10-09T08:26:21.374Z,135.00
2018-10-09T08:27:21.369Z,140.63
2018-10-09T08:28:21.373Z,135.00
2018-10-09T08:29:21.364Z,135.00
2018-10-09T08:30:21.360Z,135.00
2018-10-09T08:31:21.357Z,129.38
2018-10-09T08:32:21.429Z,129.38
2018-10-09T08:33:21.354Z,129.38
2018-10-09T08:34:21.430Z,129.38
2018-10-09T08:35:21.349Z,123.75
2018-10-09T08:36:21.342Z,123.75
2018-10-09T08:37:21.339Z,123.75
2018-10-09T08:38:21.339Z,118.13
2018-10-09T08:39:21.335Z,123.75
2018-10-09T08:40:21.357Z,123.75
2018-10-09T08:41:21.352Z,118.13
2018-10-09T08:42:21.325Z,118.13
2018-10-09T08:43:21.329Z,118.13
2018-10-09T08:44:21.319Z,118.13
2018-10-09T08:45:21.314Z,123.75
2018-10-09T08:46:21.402Z,123.75
2018-10-09T08:47:21.316Z,123.75
2018-10-09T08:48:21.308Z,118.13
2018-10-09T08:49:21.304Z,118.13
2018-10-09T08:50:21.303Z,123.75
2018-10-09T08:51:21.302Z,123.75
2018-10-09T08:52:21.300Z,123.75
2018-10-09T08:53:21.296Z,123.75
2018-10-09T08:54:21.293Z,123.75
2018-10-09T08:55:21.292Z,123.75
2018-10-09T08:56:21.285Z,123.75
2018-10-09T08:57:21.327Z,123.75
2018-10-09T08:58:21.281Z,118.13
2018-10-09T08:59:21.283Z,118.13
2018-10-09T09:00:21.276Z,118.13
2018-10-09T09:01:21.274Z,118.13
2018-10-09T09:02:21.271Z,118.13
2018-10-09T09:03:21.292Z,118.13
2018-10-09T09:04:21.264Z,118.13
2018-10-09T09:05:21.262Z,118.13
2018-10-09T09:06:21.287Z,118.13
2018-10-09T09:07:21.258Z,118.13
2018-10-09T09:08:21.257Z,112.50
2018-10-09T09:09:21.253Z,112.50
2018-10-09T09:10:21.251Z,112.50
2018-10-09T09:11:21.248Z,112.50
2018-10-09T09:12:21.245Z,112.50
2018-10-09T09:13:21.243Z,112.50
2018-10-09T09:14:21.239Z,112.50
2018-10-09T09:15:21.250Z,112.50
2018-10-09T09:16:21.235Z,112.50
2018-10-09T09:17:21.231Z,112.50
2018-10-09T09:18:21.229Z,112.50
2018-10-09T09:19:21.230Z,112.50
2018-10-09T09:20:21.243Z,112.50
2018-10-09T09:21:21.252Z,118.13
2018-10-09T09:22:21.323Z,106.88
2018-10-09T09:23:22.340Z,106.88
2018-10-09T09:24:21.388Z,106.88
2018-10-09T09:25:21.280Z,106.88
2018-10-09T09:26:21.215Z,106.88
2018-10-09T09:27:21.233Z,106.88
2018-10-09T09:28:21.207Z,106.88
2018-10-09T09:29:21.222Z,106.88
2018-10-09T09:30:21.202Z,106.88
2018-10-09T09:31:21.200Z,106.88
2018-10-09T09:32:21.196Z,106.88
2018-10-09T09:33:21.203Z,112.50
2018-10-09T09:34:21.201Z,112.50
2018-10-09T09:35:21.196Z,112.50
2018-10-09T09:36:21.191Z,112.50
2018-10-09T09:37:21.187Z,112.50
2018-10-09T09:38:21.201Z,112.50
2018-10-09T09:39:21.183Z,112.50
2018-10-09T09:40:21.180Z,112.50
2018-10-09T09:41:21.184Z,106.88
2018-10-09T09:42:21.177Z,106.88
2018-10-09T09:43:21.176Z,106.88
2018-10-09T09:44:21.179Z,101.25
2018-10-09T09:45:21.172Z,101.25
2018-10-09T09:46:21.259Z,101.25
2018-10-09T09:47:21.166Z,95.63
2018-10-09T09:48:21.165Z,95.63
2018-10-09T09:49:21.161Z,95.63
2018-10-09T09:50:21.164Z,95.63
2018-10-09T09:51:21.169Z,95.63
2018-10-09T09:52:21.376Z,95.63
2018-10-09T09:53:21.152Z,90.00
2018-10-09T09:54:21.154Z,95.63
2018-10-09T09:55:21.150Z,95.63
2018-10-09T09:56:21.205Z,95.63
2018-10-09T09:57:21.146Z,95.63
2018-10-09T09:58:21.225Z,95.63
2018-10-09T09:59:21.234Z,101.25
2018-10-09T10:00:21.153Z,101.25
2018-10-09T10:01:21.141Z,101.25
2018-10-09T10:02:21.136Z,106.88
2018-10-09T10:03:21.137Z,101.25
2018-10-09T10:04:21.153Z,101.25
2018-10-09T10:05:21.140Z,101.25
2018-10-09T10:06:21.149Z,101.25
2018-10-09T10:07:21.132Z,101.25
2018-10-09T10:08:21.125Z,106.88
2018-10-09T10:09:21.159Z,106.88
2018-10-09T10:10:21.132Z,112.50
2018-10-09T10:11:21.124Z,112.50
2018-10-09T10:12:21.119Z,112.50
2018-10-09T10:13:21.124Z,112.50
2018-10-09T10:14:21.115Z,112.50
2018-10-09T10:15:21.115Z,112.50
2018-10-09T10:16:21.116Z,112.50
2018-10-09T10:17:21.112Z,118.13
2018-10-09T10:18:21.111Z,106.88
2018-10-09T10:19:21.108Z,106.88
2018-10-09T10:20:21.119Z,106.88
2018-10-09T10:21:21.123Z,106.88
2018-10-09T10:22:21.108Z,106.88
2018-10-09T10:23:21.103Z,101.25
2018-10-09T10:24:21.101Z,106.88
2018-10-09T10:25:21.102Z,106.88
2018-10-09T10:26:21.101Z,112.50
2018-10-09T10:27:21.098Z,112.50
2018-10-09T10:28:21.098Z,112.50
2018-10-09T10:29:21.097Z,118.13
2018-10-09T10:30:21.091Z,112.50
2018-10-09T10:31:21.091Z,106.88
2018-10-09T10:32:21.088Z,101.25
2018-10-09T10:33:21.087Z,101.25
2018-10-09T10:34:21.099Z,101.25
2018-10-09T10:35:21.090Z,95.63
2018-10-09T10:36:21.092Z,90.00
2018-10-09T10:37:21.090Z,90.00
2018-10-09T10:38:21.087Z,90.00
2018-10-09T10:39:21.081Z,90.00
2018-10-09T10:40:21.080Z,90.00
2018-10-09T10:41:21.082Z,90.00
2018-10-09T10:42:21.078Z,90.00
2018-10-09T10:43:21.085Z,90.00
2018-10-09T10:44:21.082Z,90.00
2018-10-09T10:45:21.073Z,95.63
2018-10-09T10:46:21.075Z,95.63
2018-10-09T10:47:21.080Z,95.63
2018-10-09T10:48:21.068Z,95.63
2018-10-09T10:49:21.110Z,95.63
2018-10-09T10:50:21.074Z,95.63
2018-10-09T10:51:21.070Z,95.63
2018-10-09T10:52:21.069Z,95.63
2018-10-09T10:53:21.062Z,95.63
2018-10-09T10:54:21.092Z,90.00
2018-10-09T10:55:21.063Z,90.00
2018-10-09T10:56:21.060Z,90.00
2018-10-09T10:57:21.061Z,90.00
2018-10-09T10:58:21.060Z,90.00
2018-10-09T10:59:21.141Z,90.00
2018-10-09T11:00:21.063Z,90.00
2018-10-09T11:01:21.115Z,84.38
2018-10-09T11:02:21.055Z,90.00
2018-10-09T11:03:21.057Z,90.00
2018-10-09T11:04:21.055Z,90.00
2018-10-09T11:05:21.055Z,90.00
2018-10-09T11:06:21.051Z,90.00
2018-10-09T11:07:21.058Z,90.00
2018-10-09T11:08:21.104Z,90.00
2018-10-09T11:09:21.050Z,90.00
2018-10-09T11:10:21.048Z,90.00
2018-10-09T11:11:21.048Z,90.00
2018-10-09T11:12:21.047Z,90.00
2018-10-09T11:13:21.050Z,84.38
2018-10-09T11:14:21.045Z,84.38
2018-10-09T11:15:21.047Z,84.38
2018-10-09T11:16:21.060Z,84.38
2018-10-09T11:17:21.047Z,84.38
2018-10-09T11:18:21.044Z,84.38
2018-10-09T11:19:21.044Z,84.38
2018-10-09T11:20:21.041Z,84.38
2018-10-09T11:21:21.150Z,84.38
2018-10-09T11:22:21.043Z,78.75
2018-10-09T11:23:21.045Z,78.75
2018-10-09T11:24:21.040Z,78.75
2018-10-09T11:25:21.043Z,78.75
2018-10-09T11:26:21.040Z,78.75
2018-10-09T11:27:21.044Z,78.75
2018-10-09T11:28:21.040Z,78.75
2018-10-09T11:29:21.063Z,78.75
2018-10-09T11:30:21.053Z,78.75
2018-10-09T11:31:21.043Z,78.75
2018-10-09T11:32:21.061Z,78.75
2018-10-09T11:33:21.038Z,78.75
2018-10-09T11:34:21.040Z,78.75
2018-10-09T11:35:21.034Z,78.75
2018-10-09T11:36:21.036Z,78.75
2018-10-09T11:37:21.036Z,78.75
2018-10-09T11:38:21.036Z,78.75
2018-10-09T11:39:21.037Z,78.75
2018-10-09T11:40:21.043Z,78.75
2018-10-09T11:41:21.036Z,78.75
2018-10-09T11:42:21.034Z,78.75
2018-10-09T11:43:21.033Z,78.75
2018-10-09T11:44:21.030Z,78.75
2018-10-09T11:45:21.033Z,78.75
2018-10-09T11:46:21.034Z,84.38
2018-10-09T11:47:21.043Z,84.38
2018-10-09T11:48:21.030Z,84.38
2018-10-09T11:49:21.031Z,84.38
2018-10-09T11:50:21.030Z,84.38
2018-10-09T11:51:21.031Z,84.38
2018-10-09T11:52:21.037Z,84.38
2018-10-09T11:53:21.028Z,84.38
2018-10-09T11:54:21.030Z,84.38
2018-10-09T11:55:21.033Z,84.38
2018-10-09T11:56:21.028Z,84.38
2018-10-09T11:57:21.028Z,84.38
2018-10-09T11:58:21.029Z,84.38
2018-10-09T11:59:21.030Z,84.38
2018-10-09T12:00:21.027Z,84.38
2018-10-09T12:01:21.029Z,84.38
2018-10-09T12:02:21.031Z,84.38
2018-10-09T12:03:21.028Z,90.00
2018-10-09T12:04:21.028Z,90.00
2018-10-09T12:05:21.029Z,90.00
2018-10-09T12:06:21.031Z,90.00
2018-10-09T12:07:21.027Z,90.00
2018-10-09T12:08:21.027Z,90.00
2018-10-09T12:09:21.028Z,90.00
2018-10-09T12:10:21.027Z,84.38
2018-10-09T12:11:21.032Z,84.38
2018-10-09T12:12:21.028Z,84.38
2018-10-09T12:13:21.028Z,84.38
2018-10-09T12:14:21.031Z,84.38
2018-10-09T12:15:21.028Z,84.38
2018-10-09T12:16:21.040Z,84.38
2018-10-09T12:17:21.028Z,84.38
2018-10-09T12:18:21.030Z,84.38
2018-10-09T12:19:21.031Z,84.38
2018-10-09T12:20:21.029Z,84.38
2018-10-09T12:21:21.084Z,90.00
2018-10-09T12:22:21.040Z,84.38
2018-10-09T12:23:21.031Z,90.00
2018-10-09T12:24:21.029Z,90.00
2018-10-09T12:25:21.033Z,90.00
2018-10-09T12:26:21.035Z,90.00
2018-10-09T12:27:21.061Z,90.00
2018-10-09T12:28:21.031Z,90.00
2018-10-09T12:29:21.047Z,90.00
2018-10-09T12:30:21.041Z,90.00
2018-10-09T12:31:21.034Z,90.00
2018-10-09T12:32:21.032Z,90.00
2018-10-09T12:33:21.041Z,90.00
2018-10-09T12:34:21.037Z,90.00
2018-10-09T12:35:21.040Z,84.38
2018-10-09T12:36:21.036Z,84.38
2018-10-09T12:37:21.035Z,90.00
2018-10-09T12:38:21.088Z,90.00
2018-10-09T12:39:21.040Z,90.00
2018-10-09T12:40:21.039Z,90.00
2018-10-09T12:41:21.036Z,90.00
2018-10-09T12:42:21.038Z,90.00
2018-10-09T12:43:21.040Z,90.00
2018-10-09T12:44:21.095Z,90.00
2018-10-09T12:45:21.040Z,90.00
2018-10-09T12:46:21.040Z,95.63
2018-10-09T12:47:21.043Z,95.63
2018-10-09T12:48:21.043Z,95.63
2018-10-09T12:49:21.042Z,95.63
2018-10-09T12:50:21.047Z,95.63
2018-10-09T12:51:21.044Z,95.63
2018-10-09T12:52:21.044Z,95.63
2018-10-09T12:53:21.057Z,95.63
2018-10-09T12:54:21.061Z,95.63
2018-10-09T12:55:21.048Z,95.63
2018-10-09T12:56:22.277Z,101.25
2018-10-09T12:57:21.051Z,101.25
2018-10-09T12:58:21.069Z,101.25
2018-10-09T12:59:21.052Z,101.25